Time;durP1;ratioP1;P1;durP2;ratioP2;P2;SDS_P1;SDS_P2;PMS_P1;PMS_P2;Temp;Humidity;BMP_temperature;BMP_pressure;BME280_temperature;BME280_humidity;BME280_pressure;Samples;Min_cycle;Max_cycle;Signal;HPM_P1;HPM_P2
2022/10/23 00:01:47;;;;;;;30.23;18.88;;;;;;;;;;4916275;29;20058;-65
2022/10/23 00:04:16;;;;;;;31.90;19.45;;;;;;;;;;4916271;29;20048;-65
2022/10/23 00:06:43;;;;;;;33.95;19.80;;;;;;;;;;4916205;29;20491;-65
2022/10/23 00:09:12;;;;;;;27.75;18.50;;;;;;;;;;4916139;29;20055;-65
2022/10/23 00:11:41;;;;;;;32.63;19.77;;;;;;;;;;4916230;29;20072;-65
2022/10/23 00:14:08;;;;;;;32.05;19.67;;;;;;;;;;4916224;29;20071;-65
2022/10/23 00:16:36;;;;;;;32.55;18.77;;;;;;;;;;4916314;29;20052;-65
2022/10/23 00:19:04;;;;;;;29.48;18.63;;;;;;;;;;4916255;29;20092;-65
2022/10/23 00:21:32;;;;;;;30.30;18.55;;;;;;;;;;4916161;29;20459;-65
2022/10/23 00:23:59;;;;;;;32.00;19.27;;;;;;;;;;4916199;29;20079;-65
2022/10/23 00:26:27;;;;;;;30.80;17.08;;;;;;;;;;4916156;29;20040;-65
2022/10/23 00:28:55;;;;;;;29.75;17.23;;;;;;;;;;4914704;29;20048;-65
2022/10/23 00:31:23;;;;;;;29.70;18.98;;;;;;;;;;4916120;29;20056;-65
2022/10/23 00:33:50;;;;;;;32.72;18.27;;;;;;;;;;4914879;29;20107;-65
2022/10/23 00:36:19;;;;;;;29.50;17.92;;;;;;;;;;4915004;29;20447;-65
2022/10/23 00:38:47;;;;;;;27.48;19.00;;;;;;;;;;4915966;29;20100;-65
2022/10/23 00:41:16;;;;;;;31.75;18.75;;;;;;;;;;4915967;29;20044;-65
2022/10/23 00:44:01;;;;;;;28.38;18.08;;;;;;;;;;4916196;29;20040;-65
2022/10/23 00:46:29;;;;;;;35.28;18.45;;;;;;;;;;4914992;29;20099;-65
2022/10/23 00:48:57;;;;;;;28.13;18.42;;;;;;;;;;4914595;29;20555;-65
2022/10/23 00:51:27;;;;;;;32.95;17.88;;;;;;;;;;4915845;29;20044;-65
2022/10/23 00:53:56;;;;;;;29.95;17.92;;;;;;;;;;4915937;29;20041;-65
2022/10/23 00:56:43;;;;;;;31.20;17.90;;;;;;;;;;4914836;29;20055;-65
2022/10/23 00:59:11;;;;;;;27.83;16.92;;;;;;;;;;4915809;29;20064;-65
2022/10/23 01:01:39;;;;;;;30.52;17.70;;;;;;;;;;4918032;29;20058;-65
2022/10/23 01:04:07;;;;;;;30.48;18.38;;;;;;;;;;4919254;29;20036;-65
2022/10/23 01:06:42;;;;;;;34.53;17.73;;;;;;;;;;4918044;29;20055;-65
2022/10/23 01:09:28;;;;;;;30.50;17.90;;;;;;;;;;4917916;29;20103;-65
2022/10/23 01:11:59;;;;;;;26.45;17.20;;;;;;;;;;4919376;29;20131;-65
2022/10/23 01:14:45;;;;;;;33.45;17.15;;;;;;;;;;4919245;29;20411;-64
2022/10/23 01:17:22;;;;;;;27.58;17.23;;;;;;;;;;4902192;29;20055;-65
2022/10/23 01:20:08;;;;;;;27.52;17.60;;;;;;;;;;4917689;29;20048;-65
2022/10/23 01:22:56;;;;;;;29.17;17.83;;;;;;;;;;4918876;29;20087;-65
2022/10/23 01:25:30;;;;;;;27.65;18.23;;;;;;;;;;4895660;29;20059;-64
2022/10/23 01:28:02;;;;;;;29.42;17.90;;;;;;;;;;4917921;29;20052;-65
2022/10/23 01:30:33;;;;;;;31.90;18.20;;;;;;;;;;4918513;29;20143;-65
2022/10/23 01:33:00;;;;;;;31.02;17.83;;;;;;;;;;4917757;29;20082;-65
2022/10/23 01:35:42;;;;;;;27.63;17.58;;;;;;;;;;4917499;29;20044;-65
2022/10/23 01:38:10;;;;;;;30.20;18.30;;;;;;;;;;4918825;29;20040;-65
2022/10/23 01:40:47;;;;;;;31.25;17.30;;;;;;;;;;4917295;29;20115;-64
2022/10/23 01:43:18;;;;;;;26.45;17.60;;;;;;;;;;4917367;29;20044;-64
2022/10/23 01:45:49;;;;;;;27.13;18.05;;;;;;;;;;4917101;29;20048;-65
2022/10/23 01:48:23;;;;;;;28.73;17.48;;;;;;;;;;4917376;29;20052;-65
2022/10/23 01:50:53;;;;;;;26.15;18.25;;;;;;;;;;4917110;29;20131;-65
2022/10/23 01:53:21;;;;;;;26.33;17.05;;;;;;;;;;4917265;29;20036;-65
2022/10/23 01:55:49;;;;;;;32.83;17.98;;;;;;;;;;4917130;29;20072;-65
2022/10/23 01:58:22;;;;;;;29.60;18.80;;;;;;;;;;4917162;29;20044;-65
2022/10/23 02:00:50;;;;;;;31.25;19.17;;;;;;;;;;4917159;29;20079;-65
2022/10/23 02:03:19;;;;;;;36.05;20.25;;;;;;;;;;4917263;29;20056;-64
2022/10/23 02:05:47;;;;;;;30.23;20.52;;;;;;;;;;4918553;29;20052;-64
2022/10/23 02:08:14;;;;;;;34.92;21.17;;;;;;;;;;4916905;29;20491;-65
2022/10/23 02:10:46;;;;;;;34.13;21.10;;;;;;;;;;4915617;29;20143;-65
2022/10/23 02:13:21;;;;;;;30.42;20.48;;;;;;;;;;4916907;29;20050;-64
2022/10/23 02:15:52;;;;;;;31.83;20.60;;;;;;;;;;4916869;29;20139;-64
2022/10/23 02:18:19;;;;;;;30.58;20.15;;;;;;;;;;4916656;29;20079;-65
2022/10/23 02:20:56;;;;;;;31.67;19.10;;;;;;;;;;4916862;29;20040;-65
2022/10/23 02:23:24;;;;;;;33.40;19.30;;;;;;;;;;4916669;29;20108;-65
2022/10/23 02:25:52;;;;;;;27.00;18.83;;;;;;;;;;4917874;29;20068;-65
2022/10/23 02:28:24;;;;;;;28.88;18.77;;;;;;;;;;4918007;29;20044;-64
2022/10/23 02:30:57;;;;;;;33.58;18.88;;;;;;;;;;4916396;29;20052;-64
2022/10/23 02:33:26;;;;;;;33.63;19.65;;;;;;;;;;4917984;29;20123;-64
2022/10/23 02:35:54;;;;;;;30.88;19.45;;;;;;;;;;4916626;29;20427;-64
2022/10/23 02:38:29;;;;;;;30.83;19.92;;;;;;;;;;4916546;29;20052;-64
2022/10/23 02:41:09;;;;;;;30.83;20.05;;;;;;;;;;4916237;29;20083;-64
2022/10/23 02:43:42;;;;;;;32.42;19.48;;;;;;;;;;4917714;29;20051;-65
2022/10/23 02:46:22;;;;;;;31.48;19.23;;;;;;;;;;4916029;29;20052;-64
2022/10/23 02:49:01;;;;;;;29.42;18.48;;;;;;;;;;4916382;29;20052;-65
2022/10/23 02:51:49;;;;;;;34.25;19.90;;;;;;;;;;4916043;29;20044;-64
2022/10/23 02:54:37;;;;;;;31.20;20.48;;;;;;;;;;4908478;29;20062;-65
2022/10/23 02:57:22;;;;;;;29.52;18.60;;;;;;;;;;4917390;29;20040;-64
2022/10/23 03:00:00;;;;;;;33.05;19.52;;;;;;;;;;4916193;29;20044;-64
2022/10/23 03:02:37;;;;;;;30.88;19.50;;;;;;;;;;4915965;29;20079;-64
2022/10/23 03:05:07;;;;;;;30.25;19.05;;;;;;;;;;4915976;29;20558;-64
2022/10/23 03:07:35;;;;;;;31.60;19.17;;;;;;;;;;4915714;29;20048;-64
2022/10/23 03:10:06;;;;;;;30.10;18.48;;;;;;;;;;4915802;29;20533;-65
2022/10/23 03:12:33;;;;;;;30.63;19.15;;;;;;;;;;4915365;29;20040;-64
2022/10/23 03:15:03;;;;;;;28.65;19.25;;;;;;;;;;4916988;29;20048;-64
2022/10/23 03:17:30;;;;;;;35.38;19.98;;;;;;;;;;4915711;29;20523;-65
2022/10/23 03:19:59;;;;;;;31.52;19.38;;;;;;;;;;4915744;29;20046;-64
2022/10/23 03:22:27;;;;;;;34.97;20.42;;;;;;;;;;4915269;29;20135;-65
2022/10/23 03:24:55;;;;;;;29.23;18.40;;;;;;;;;;4915826;29;20451;-64
2022/10/23 03:27:22;;;;;;;30.08;19.23;;;;;;;;;;4915690;29;20055;-65
2022/10/23 03:29:50;;;;;;;31.30;19.85;;;;;;;;;;4915330;29;20072;-65
2022/10/23 03:32:18;;;;;;;30.42;19.85;;;;;;;;;;4911649;29;20052;-65
2022/10/23 03:34:46;;;;;;;35.70;20.55;;;;;;;;;;4908128;29;20039;-65
2022/10/23 03:37:13;;;;;;;30.40;19.75;;;;;;;;;;4914418;29;20052;-65
2022/10/23 03:39:41;;;;;;;27.55;19.02;;;;;;;;;;4930923;29;20047;-66
2022/10/23 03:42:08;;;;;;;33.25;19.17;;;;;;;;;;4898469;29;20451;-66
2022/10/23 03:44:36;;;;;;;28.17;18.05;;;;;;;;;;4915312;29;20104;-65
2022/10/23 03:47:04;;;;;;;32.53;17.85;;;;;;;;;;4914713;29;20048;-66
2022/10/23 03:49:31;;;;;;;28.35;18.63;;;;;;;;;;4914808;29;20088;-65
2022/10/23 03:52:04;;;;;;;27.63;17.52;;;;;;;;;;4914974;29;20051;-66
2022/10/23 03:54:32;;;;;;;25.15;16.50;;;;;;;;;;4914873;29;20447;-67
2022/10/23 03:57:00;;;;;;;24.98;15.82;;;;;;;;;;4914876;29;20052;-65
2022/10/23 03:59:28;;;;;;;25.85;15.68;;;;;;;;;;4914752;29;20040;-66
2022/10/23 04:01:55;;;;;;;26.35;14.75;;;;;;;;;;4915098;29;20044;-66
2022/10/23 04:04:24;;;;;;;25.00;15.75;;;;;;;;;;4914782;29;20472;-66
2022/10/23 04:06:53;;;;;;;25.50;15.02;;;;;;;;;;4920660;29;20056;-66
2022/10/23 04:09:21;;;;;;;26.60;14.77;;;;;;;;;;4927602;29;20120;-65
2022/10/23 04:11:48;;;;;;;28.33;14.45;;;;;;;;;;4914687;29;20059;-65
2022/10/23 04:14:16;;;;;;;28.33;15.77;;;;;;;;;;4914668;29;20499;-65
2022/10/23 04:16:44;;;;;;;26.73;14.50;;;;;;;;;;4914747;29;20574;-65
2022/10/23 04:19:11;;;;;;;23.45;14.32;;;;;;;;;;4899311;29;20036;-66
2022/10/23 04:21:40;;;;;;;23.27;13.60;;;;;;;;;;4913838;29;20044;-66
2022/10/23 04:24:08;;;;;;;19.27;13.60;;;;;;;;;;4913836;29;20444;-66
2022/10/23 04:26:36;;;;;;;23.80;13.68;;;;;;;;;;4914434;29;20037;-66
2022/10/23 04:29:04;;;;;;;26.52;14.27;;;;;;;;;;4914472;29;20091;-66
2022/10/23 04:31:31;;;;;;;24.27;14.38;;;;;;;;;;4915483;29;20063;-65
2022/10/23 04:33:59;;;;;;;22.42;13.80;;;;;;;;;;4915477;29;20079;-66
2022/10/23 04:36:29;;;;;;;26.20;13.32;;;;;;;;;;4933748;29;20459;-65
2022/10/23 04:39:03;;;;;;;22.00;12.32;;;;;;;;;;4918502;29;20040;-66
2022/10/23 04:41:31;;;;;;;25.80;12.80;;;;;;;;;;4917855;29;20473;-66
2022/10/23 04:43:59;;;;;;;19.75;12.85;;;;;;;;;;4918234;29;20048;-65
2022/10/23 04:46:27;;;;;;;18.92;12.02;;;;;;;;;;4918130;29;20048;-66
2022/10/23 04:48:54;;;;;;;19.42;12.45;;;;;;;;;;4917931;29;20043;-66
2022/10/23 04:51:40;;;;;;;21.10;11.48;;;;;;;;;;4919189;29;20134;-65
2022/10/23 04:54:28;;;;;;;21.20;12.15;;;;;;;;;;4909030;29;20522;-65
2022/10/23 04:57:25;;;;;;;18.45;11.13;;;;;;;;;;4865251;29;20134;-65
2022/10/23 05:00:01;;;;;;;18.63;12.00;;;;;;;;;;4913686;29;20048;-66
2022/10/23 05:02:36;;;;;;;23.17;11.15;;;;;;;;;;4919102;29;20036;-64
2022/10/23 05:05:03;;;;;;;20.45;11.15;;;;;;;;;;4917071;29;20071;-65
2022/10/23 05:07:49;;;;;;;18.60;10.55;;;;;;;;;;4917981;29;20517;-66
2022/10/23 05:10:33;;;;;;;18.77;10.35;;;;;;;;;;4915214;29;20074;-65
2022/10/23 05:13:08;;;;;;;23.90;10.55;;;;;;;;;;4917529;29;20130;-66
2022/10/23 05:15:35;;;;;;;18.52;9.70;;;;;;;;;;4918755;29;20044;-65
2022/10/23 05:18:16;;;;;;;16.25;9.95;;;;;;;;;;4919029;29;20048;-65
2022/10/23 05:20:44;;;;;;;16.15;10.18;;;;;;;;;;4914607;29;20127;-65
2022/10/23 05:23:14;;;;;;;15.60;8.73;;;;;;;;;;4918577;29;20051;-66
2022/10/23 05:25:52;;;;;;;16.08;9.05;;;;;;;;;;4904226;29;20045;-65
2022/10/23 05:28:21;;;;;;;18.20;9.05;;;;;;;;;;4926975;29;20415;-65
2022/10/23 05:30:49;;;;;;;16.02;8.73;;;;;;;;;;4916898;29;20119;-65
2022/10/23 05:33:17;;;;;;;19.75;8.82;;;;;;;;;;4917221;29;20044;-65
2022/10/23 05:35:44;;;;;;;35.65;10.88;;;;;;;;;;4917194;29;20095;-65
2022/10/23 05:38:15;;;;;;;16.80;7.82;;;;;;;;;;4917161;29;20473;-65
2022/10/23 05:40:43;;;;;;;11.77;7.05;;;;;;;;;;4917122;29;20044;-65
2022/10/23 05:43:17;;;;;;;14.95;7.78;;;;;;;;;;4917072;29;21276;-64
2022/10/23 05:46:09;;;;;;;19.55;8.27;;;;;;;;;;4917014;29;20143;-66
2022/10/23 05:48:59;;;;;;;11.60;7.75;;;;;;;;;;4917830;29;20054;-65
2022/10/23 05:51:27;;;;;;;18.98;7.55;;;;;;;;;;4917296;29;20451;-65
2022/10/23 05:53:59;;;;;;;13.45;7.38;;;;;;;;;;4913662;29;20043;-66
2022/10/23 05:56:42;;;;;;;64.82;9.35;;;;;;;;;;4915147;29;20104;-66
2022/10/23 05:59:33;;;;;;;12.90;6.90;;;;;;;;;;4911715;29;20066;-66
2022/10/23 06:02:19;;;;;;;11.82;6.82;;;;;;;;;;4904678;29;20061;-66
2022/10/23 06:04:55;;;;;;;11.27;7.15;;;;;;;;;;4916472;29;20052;-64
2022/10/23 06:07:29;;;;;;;12.95;7.35;;;;;;;;;;4918037;29;20056;-64
2022/10/23 06:10:04;;;;;;;13.50;6.72;;;;;;;;;;4916607;29;20063;-65
2022/10/23 06:12:35;;;;;;;15.02;6.63;;;;;;;;;;4916793;29;20518;-64
2022/10/23 06:15:03;;;;;;;12.00;5.88;;;;;;;;;;4915593;29;20480;-64
2022/10/23 06:17:51;;;;;;;14.07;6.50;;;;;;;;;;4916643;29;20107;-64
2022/10/23 06:20:19;;;;;;;10.25;5.85;;;;;;;;;;4915603;29;20082;-67
2022/10/23 06:22:59;;;;;;;36.80;6.80;;;;;;;;;;4915389;29;20048;-67
2022/10/23 06:25:59;;;;;;;14.50;5.85;;;;;;;;;;4885928;29;20111;-68
2022/10/23 06:28:35;;;;;;;8.32;5.00;;;;;;;;;;4916589;29;20407;-67
2022/10/23 06:31:04;;;;;;;8.27;4.82;;;;;;;;;;4916330;29;20537;-68
2022/10/23 06:33:32;;;;;;;10.23;4.90;;;;;;;;;;4900713;29;20576;-67
2022/10/23 06:36:04;;;;;;;119.53;10.45;;;;;;;;;;4916273;29;20048;-68
2022/10/23 06:38:35;;;;;;;10.25;3.92;;;;;;;;;;4916454;29;20083;-68
2022/10/23 06:41:04;;;;;;;5.20;3.35;;;;;;;;;;4916363;29;20052;-68
2022/10/23 06:43:36;;;;;;;7.20;3.33;;;;;;;;;;4915813;29;20051;-68
2022/10/23 06:46:12;;;;;;;11.75;3.72;;;;;;;;;;4924833;29;20044;-67
2022/10/23 06:48:59;;;;;;;22.55;4.50;;;;;;;;;;4924082;29;20058;-67
2022/10/23 06:51:31;;;;;;;7.93;3.60;;;;;;;;;;4915397;29;20083;-67
2022/10/23 06:53:58;;;;;;;11.60;4.28;;;;;;;;;;4915812;29;20048;-66
2022/10/23 06:56:49;;;;;;;13.80;3.75;;;;;;;;;;4908294;29;20062;-66
2022/10/23 06:59:21;;;;;;;12.90;3.28;;;;;;;;;;4897009;29;20055;-67
2022/10/23 07:01:51;;;;;;;15.73;3.75;;;;;;;;;;4897593;29;20056;-67
2022/10/23 07:04:18;;;;;;;6.47;3.67;;;;;;;;;;4898130;29;20469;-67
2022/10/23 07:06:47;;;;;;;5.80;3.33;;;;;;;;;;4896942;29;20041;-66
2022/10/23 07:09:14;;;;;;;5.28;3.28;;;;;;;;;;4896824;29;20567;-66
2022/10/23 07:11:51;;;;;;;12.43;3.25;;;;;;;;;;4898122;29;20449;-66
2022/10/23 07:14:24;;;;;;;5.97;3.00;;;;;;;;;;4896953;29;20408;-68
2022/10/23 07:16:52;;;;;;;6.10;2.83;;;;;;;;;;4897113;29;20045;-67
2022/10/23 07:19:20;;;;;;;8.55;2.67;;;;;;;;;;4904992;29;20047;-67
2022/10/23 07:21:59;;;;;;;6.50;3.65;;;;;;;;;;4926282;29;20450;-67
2022/10/23 07:24:39;;;;;;;33.00;3.50;;;;;;;;;;4914017;29;20040;-66
2022/10/23 07:27:17;;;;;;;7.38;2.80;;;;;;;;;;4946426;29;20083;-66
2022/10/23 07:29:51;;;;;;;9.68;2.85;;;;;;;;;;4914665;29;20044;-67
2022/10/23 07:32:19;;;;;;;33.70;4.35;;;;;;;;;;4914067;29;20048;-66
2022/10/23 07:35:05;;;;;;;6.95;2.60;;;;;;;;;;4916018;29;20180;-67
2022/10/23 07:37:34;;;;;;;15.98;3.00;;;;;;;;;;4915074;29;20396;-67
2022/10/23 07:40:04;;;;;;;12.82;3.13;;;;;;;;;;4915012;29;20040;-67
2022/10/23 07:42:37;;;;;;;6.65;2.78;;;;;;;;;;4914875;29;20134;-70
2022/10/23 07:45:06;;;;;;;6.30;2.75;;;;;;;;;;4915519;29;20180;-70
2022/10/23 07:47:35;;;;;;;4.22;2.40;;;;;;;;;;4916210;29;20044;-71
2022/10/23 07:50:03;;;;;;;8.80;2.90;;;;;;;;;;4915058;29;20075;-71
2022/10/23 07:52:30;;;;;;;5.80;2.50;;;;;;;;;;4914859;29;20058;-71
2022/10/23 07:55:09;;;;;;;6.60;2.70;;;;;;;;;;4915108;29;20051;-71
2022/10/23 07:57:40;;;;;;;6.07;2.40;;;;;;;;;;4899982;29;20052;-75
2022/10/23 08:00:21;;;;;;;7.75;2.83;;;;;;;;;;4914888;29;20710;-70
2022/10/23 08:03:03;;;;;;;8.65;2.90;;;;;;;;;;4930689;29;20137;-71
2022/10/23 08:05:32;;;;;;;9.95;2.55;;;;;;;;;;4914937;29;20047;-72
2022/10/23 08:08:01;;;;;;;5.97;2.55;;;;;;;;;;4915993;29;20091;-76
2022/10/23 08:10:30;;;;;;;3.38;2.30;;;;;;;;;;4918844;29;20594;-74
2022/10/23 08:12:59;;;;;;;5.78;2.75;;;;;;;;;;4918423;29;20055;-71
2022/10/23 08:15:53;;;;;;;5.30;2.60;;;;;;;;;;4917496;29;20063;-74
2022/10/23 08:18:44;;;;;;;7.35;2.70;;;;;;;;;;4920319;29;20074;-70
2022/10/23 08:21:11;;;;;;;7.82;2.40;;;;;;;;;;4918726;29;20048;-70
2022/10/23 08:23:39;;;;;;;7.45;2.92;;;;;;;;;;4918029;29;20036;-71
2022/10/23 08:26:07;;;;;;;5.47;3.25;;;;;;;;;;4918282;29;20092;-69
2022/10/23 08:28:35;;;;;;;4.72;2.85;;;;;;;;;;4918151;29;20040;-71
2022/10/23 08:31:13;;;;;;;7.40;2.92;;;;;;;;;;4918208;29;20479;-70
2022/10/23 08:33:50;;;;;;;7.47;2.80;;;;;;;;;;4918265;29;20055;-71
2022/10/23 08:36:25;;;;;;;13.90;3.20;;;;;;;;;;4917792;29;20051;-70
2022/10/23 08:38:54;;;;;;;10.50;5.55;;;;;;;;;;4918216;29;20396;-71
2022/10/23 08:41:28;;;;;;;15.77;4.32;;;;;;;;;;4902636;29;20143;-70
2022/10/23 08:44:26;;;;;;;22.13;8.07;;;;;;;;;;4918177;29;20553;-68
2022/10/23 08:47:06;;;;;;;12.15;5.40;;;;;;;;;;4918143;29;20076;-72
2022/10/23 08:49:45;;;;;;;10.80;7.43;;;;;;;;;;4919378;29;20044;-72
2022/10/23 08:52:28;;;;;;;21.90;8.57;;;;;;;;;;4917915;29;20048;-71
2022/10/23 08:55:02;;;;;;;9.68;4.30;;;;;;;;;;4919208;29;20087;-75
2022/10/23 08:57:38;;;;;;;12.23;7.55;;;;;;;;;;4918130;29;20036;-69
2022/10/23 09:00:16;;;;;;;26.20;3.70;;;;;;;;;;4919386;29;20047;-64
2022/10/23 09:02:49;;;;;;;8.15;3.25;;;;;;;;;;4919078;29;20036;-71
2022/10/23 09:05:24;;;;;;;7.43;2.50;;;;;;;;;;4919220;29;20048;-64
2022/10/23 09:08:00;;;;;;;7.15;3.17;;;;;;;;;;4919071;29;20563;-74
2022/10/23 09:10:47;;;;;;;6.78;3.13;;;;;;;;;;4917959;29;20483;-67
2022/10/23 09:13:30;;;;;;;11.00;3.78;;;;;;;;;;4922936;29;20055;-69
2022/10/23 09:16:13;;;;;;;6.15;3.63;;;;;;;;;;4926252;29;20047;-67
2022/10/23 09:18:41;;;;;;;5.80;2.75;;;;;;;;;;4927169;29;20047;-68
2022/10/23 09:21:09;;;;;;;5.20;3.33;;;;;;;;;;4926412;29;20047;-64
2022/10/23 09:23:37;;;;;;;8.15;2.47;;;;;;;;;;4922115;29;20095;-67
2022/10/23 09:26:12;;;;;;;8.32;2.28;;;;;;;;;;4914924;29;20032;-66
2022/10/23 09:28:48;;;;;;;7.53;2.63;;;;;;;;;;4917266;29;20409;-67
2022/10/23 09:31:16;;;;;;;2.95;2.03;;;;;;;;;;4917316;29;20052;-66
2022/10/23 09:33:57;;;;;;;4.55;2.33;;;;;;;;;;4917169;29;20040;-67
2022/10/23 09:36:27;;;;;;;5.50;2.50;;;;;;;;;;4917084;29;20388;-69
2022/10/23 09:39:00;;;;;;;7.70;3.60;;;;;;;;;;4917109;29;20128;-69
2022/10/23 09:41:34;;;;;;;4.57;2.72;;;;;;;;;;4915195;29;20044;-68
2022/10/23 09:44:08;;;;;;;6.10;2.90;;;;;;;;;;4919546;29;20036;-66
2022/10/23 09:46:37;;;;;;;;;;;;;;;;;;4930191;29;20520;-67
2022/10/23 09:49:06;;;;;;;8.43;3.40;;;;;;;;;;4899715;29;19924;-67
2022/10/23 09:51:33;;;;;;;4.43;3.10;;;;;;;;;;4899510;29;20543;-66
2022/10/23 09:54:01;;;;;;;5.00;2.40;;;;;;;;;;4899536;29;20044;-67
2022/10/23 09:56:31;;;;;;;3.35;2.50;;;;;;;;;;4899528;29;20053;-67
2022/10/23 09:59:05;;;;;;;8.82;2.50;;;;;;;;;;4899390;29;20041;-67
2022/10/23 10:01:37;;;;;;;4.90;2.40;;;;;;;;;;4899351;29;20495;-67
2022/10/23 10:04:32;;;;;;;5.85;2.90;;;;;;;;;;4898175;29;20516;-67
2022/10/23 10:07:00;;;;;;;6.45;2.38;;;;;;;;;;4899245;29;20052;-67
2022/10/23 10:09:28;;;;;;;5.38;2.58;;;;;;;;;;4899297;29;20526;-67
2022/10/23 10:12:07;;;;;;;3.25;2.05;;;;;;;;;;4899622;29;20695;-66
2022/10/23 10:14:48;;;;;;;6.35;2.60;;;;;;;;;;4901854;29;20044;-67
2022/10/23 10:17:34;;;;;;;6.18;2.60;;;;;;;;;;4916287;29;20040;-67
2022/10/23 10:20:20;;;;;;;5.95;2.65;;;;;;;;;;4916974;29;20036;-67
2022/10/23 10:23:06;;;;;;;4.00;1.83;;;;;;;;;;4916478;29;20528;-67
2022/10/23 10:25:43;;;;;;;6.32;2.63;;;;;;;;;;4915974;29;20072;-67
2022/10/23 10:28:26;;;;;;;8.48;3.25;;;;;;;;;;4917542;29;20123;-66
2022/10/23 10:30:54;;;;;;;5.68;3.20;;;;;;;;;;4916843;29;20060;-67
2022/10/23 10:33:21;;;;;;;7.03;2.22;;;;;;;;;;4916917;29;20075;-67
2022/10/23 10:35:57;;;;;;;19.17;4.22;;;;;;;;;;4917180;29;20482;-79
2022/10/23 10:38:30;;;;;;;9.50;2.67;;;;;;;;;;4917358;29;20055;-68
2022/10/23 10:40:58;;;;;;;8.48;3.33;;;;;;;;;;4928833;29;20889;-67
2022/10/23 10:43:46;;;;;;;5.25;3.72;;;;;;;;;;4909538;29;20091;-67
2022/10/23 10:46:17;;;;;;;3.97;2.67;;;;;;;;;;4915528;29;20119;-67
2022/10/23 10:49:01;;;;;;;7.72;3.90;;;;;;;;;;4916549;29;20048;-67
2022/10/23 10:52:06;;;;;;;2.42;1.58;;;;;;;;;;4905916;29;20055;-67
2022/10/23 10:54:59;;;;;;;10.52;5.70;;;;;;;;;;4916543;29;20036;-67
2022/10/23 10:57:36;;;;;;;6.53;4.95;;;;;;;;;;4914948;29;20060;-67
2022/10/23 11:00:05;;;;;;;11.88;9.38;;;;;;;;;;4917046;29;20056;-67
2022/10/23 11:02:59;;;;;;;46.92;34.72;;;;;;;;;;4916389;29;20554;-67
2022/10/23 11:05:32;;;;;;;22.77;16.40;;;;;;;;;;4894229;29;20114;-67
2022/10/23 11:08:01;;;;;;;6.47;3.90;;;;;;;;;;4915493;29;20160;-67
2022/10/23 11:10:29;;;;;;;5.28;4.38;;;;;;;;;;4916125;29;20487;-67
2022/10/23 11:12:57;;;;;;;2.78;2.03;;;;;;;;;;4910557;29;20044;-66
2022/10/23 11:15:27;;;;;;;12.90;9.70;;;;;;;;;;4916245;29;20131;-66
2022/10/23 11:17:57;;;;;;;8.75;3.67;;;;;;;;;;4916366;29;20071;-67
2022/10/23 11:20:29;;;;;;;12.10;8.55;;;;;;;;;;4916169;29;20447;-66
2022/10/23 11:23:03;;;;;;;7.20;5.18;;;;;;;;;;4916368;29;20107;-66
2022/10/23 11:25:33;;;;;;;4.28;2.08;;;;;;;;;;4916251;29;20044;-67
2022/10/23 11:28:20;;;;;;;72.15;57.25;;;;;;;;;;4915028;29;20139;-66
2022/10/23 11:30:56;;;;;;;14.88;10.32;;;;;;;;;;4914942;29;20055;-66
2022/10/23 11:33:39;;;;;;;7.30;2.65;;;;;;;;;;4915977;29;20040;-66
2022/10/23 11:36:13;;;;;;;37.75;27.92;;;;;;;;;;4916216;29;20044;-66
2022/10/23 11:38:43;;;;;;;4.43;3.33;;;;;;;;;;4914722;29;20051;-66
2022/10/23 11:41:24;;;;;;;6.85;3.40;;;;;;;;;;4915388;29;20499;-66
2022/10/23 11:43:54;;;;;;;142.40;93.97;;;;;;;;;;4902613;29;20135;-67
2022/10/23 11:46:22;;;;;;;13.57;5.68;;;;;;;;;;4915488;29;20135;-67
2022/10/23 11:48:50;;;;;;;7.70;4.68;;;;;;;;;;4915663;29;20100;-66
2022/10/23 11:51:29;;;;;;;54.72;41.00;;;;;;;;;;4916078;29;20123;-66
2022/10/23 11:54:07;;;;;;;5.05;3.15;;;;;;;;;;4915752;29;20126;-66
2022/10/23 11:56:35;;;;;;;12.77;9.57;;;;;;;;;;4915474;29;20119;-67
2022/10/23 11:59:29;;;;;;;7.05;5.38;;;;;;;;;;4915958;29;20064;-67
2022/10/23 12:01:59;;;;;;;4.57;2.53;;;;;;;;;;4913585;29;20662;-68
2022/10/23 12:04:39;;;;;;;4.78;3.70;;;;;;;;;;4915322;29;20056;-67
2022/10/23 12:07:36;;;;;;;2.63;1.95;;;;;;;;;;4915928;29;20122;-67
2022/10/23 12:10:03;;;;;;;6.70;3.60;;;;;;;;;;4903434;29;20052;-68
2022/10/23 12:12:33;;;;;;;3.20;2.50;;;;;;;;;;4915431;29;20131;-68
2022/10/23 12:15:13;;;;;;;19.55;3.35;;;;;;;;;;4930355;29;20067;-68
2022/10/23 12:17:42;;;;;;;2.63;2.30;;;;;;;;;;4904539;29;20079;-68
2022/10/23 12:20:13;;;;;;;6.97;2.47;;;;;;;;;;4902793;29;20368;-68
2022/10/23 12:22:55;;;;;;;3.50;2.17;;;;;;;;;;4915677;29;20103;-67
2022/10/23 12:25:42;;;;;;;3.92;2.60;;;;;;;;;;4915549;29;20036;-67
2022/10/23 12:28:22;;;;;;;4.47;2.33;;;;;;;;;;4915818;29;20036;-67
2022/10/23 12:30:49;;;;;;;5.68;2.70;;;;;;;;;;4915360;29;20470;-67
2022/10/23 12:33:30;;;;;;;3.78;1.92;;;;;;;;;;4915835;29;20450;-67
2022/10/23 12:36:04;;;;;;;4.75;1.80;;;;;;;;;;4915545;29;20681;-68
2022/10/23 12:38:32;;;;;;;2.50;1.60;;;;;;;;;;4915575;29;20068;-67
2022/10/23 12:41:16;;;;;;;3.35;1.70;;;;;;;;;;4915177;29;20040;-67
2022/10/23 12:43:51;;;;;;;7.35;1.80;;;;;;;;;;4914139;29;20051;-68
2022/10/23 12:46:21;;;;;;;3.03;1.60;;;;;;;;;;4915462;29;20115;-67
2022/10/23 12:48:53;;;;;;;3.55;1.80;;;;;;;;;;4914980;29;20047;-67
2022/10/23 12:51:23;;;;;;;2.80;1.60;;;;;;;;;;4909777;29;20419;-67
2022/10/23 12:53:51;;;;;;;3.05;1.80;;;;;;;;;;4904168;29;20040;-67
2022/10/23 12:56:18;;;;;;;4.43;1.90;;;;;;;;;;4917873;29;20036;-67
2022/10/23 12:58:56;;;;;;;2.03;1.60;;;;;;;;;;4919003;29;20587;-67
2022/10/23 13:01:28;;;;;;;2.55;1.42;;;;;;;;;;4918747;29;20040;-68
2022/10/23 13:03:58;;;;;;;3.67;2.00;;;;;;;;;;4917956;29;20131;-67
2022/10/23 13:06:26;;;;;;;4.22;1.60;;;;;;;;;;4947750;29;20040;-67
2022/10/23 13:08:54;;;;;;;3.10;1.65;;;;;;;;;;4917555;29;20044;-67
2022/10/23 13:11:42;;;;;;;2.13;1.58;;;;;;;;;;4904629;29;20048;-67
2022/10/23 13:14:14;;;;;;;2.92;1.98;;;;;;;;;;4917713;29;20055;-67
2022/10/23 13:16:41;;;;;;;1.98;1.60;;;;;;;;;;4918612;29;20068;-67
2022/10/23 13:19:24;;;;;;;8.30;1.60;;;;;;;;;;4918632;29;20047;-68
2022/10/23 13:21:52;;;;;;;2.55;1.48;;;;;;;;;;4918336;29;20543;-68
2022/10/23 13:24:21;;;;;;;5.32;1.70;;;;;;;;;;4918531;29;20111;-68
2022/10/23 13:26:48;;;;;;;10.70;1.80;;;;;;;;;;4918326;29;20036;-67
2022/10/23 13:29:26;;;;;;;3.50;1.73;;;;;;;;;;4918471;29;20573;-68
2022/10/23 13:31:54;;;;;;;1.85;1.70;;;;;;;;;;4918236;29;20414;-68
2022/10/23 13:34:28;;;;;;;2.17;1.70;;;;;;;;;;4918503;29;20060;-68
2022/10/23 13:37:23;;;;;;;2.10;1.70;;;;;;;;;;4916968;29;20051;-68
2022/10/23 13:40:01;;;;;;;2.90;1.63;;;;;;;;;;4915969;29;20566;-68
2022/10/23 13:42:28;;;;;;;1.52;1.33;;;;;;;;;;4918212;29;20131;-67
2022/10/23 13:44:56;;;;;;;3.33;1.80;;;;;;;;;;4917694;29;20119;-67
2022/10/23 13:47:23;;;;;;;5.55;2.20;;;;;;;;;;4918137;29;20499;-68
2022/10/23 13:49:51;;;;;;;3.15;1.67;;;;;;;;;;4917823;29;20040;-67
2022/10/23 13:52:20;;;;;;;3.85;2.15;;;;;;;;;;4917902;29;20046;-69
2022/10/23 13:54:49;;;;;;;4.72;2.92;;;;;;;;;;4918095;29;20072;-69
2022/10/23 13:57:16;;;;;;;6.57;2.20;;;;;;;;;;4916828;29;20051;-70
2022/10/23 13:59:44;;;;;;;3.60;1.80;;;;;;;;;;4917873;29;20032;-70
2022/10/23 14:02:20;;;;;;;4.57;1.40;;;;;;;;;;4917973;29;21036;-67
2022/10/23 14:04:48;;;;;;;1.73;1.27;;;;;;;;;;4917942;29;20064;-67
2022/10/23 14:07:16;;;;;;;3.45;1.88;;;;;;;;;;4914883;29;20522;-67
2022/10/23 14:09:44;;;;;;;2.83;2.00;;;;;;;;;;4917240;29;20055;-67
2022/10/23 14:12:12;;;;;;;2.95;2.40;;;;;;;;;;4917692;29;20040;-67
2022/10/23 14:14:40;;;;;;;3.05;2.10;;;;;;;;;;4917701;29;20062;-67
2022/10/23 14:17:07;;;;;;;3.17;2.10;;;;;;;;;;4917617;29;20510;-66
2022/10/23 14:19:35;;;;;;;2.13;1.70;;;;;;;;;;4916438;29;20044;-68
2022/10/23 14:22:03;;;;;;;2.22;2.00;;;;;;;;;;4914007;29;20380;-67
2022/10/23 14:24:31;;;;;;;3.13;1.60;;;;;;;;;;4915769;29;20051;-66
2022/10/23 14:26:58;;;;;;;1.50;1.30;;;;;;;;;;4917455;29;20095;-67
2022/10/23 14:29:26;;;;;;;1.88;1.35;;;;;;;;;;4916094;29;20052;-65
2022/10/23 14:31:53;;;;;;;2.78;1.30;;;;;;;;;;4915983;29;20128;-64
2022/10/23 14:34:21;;;;;;;2.08;1.58;;;;;;;;;;4917019;29;20054;-65
2022/10/23 14:36:48;;;;;;;3.25;1.40;;;;;;;;;;4916483;29;20053;-66
2022/10/23 14:39:23;;;;;;;4.60;2.22;;;;;;;;;;4914932;29;20135;-66
2022/10/23 14:41:50;;;;;;;4.43;1.95;;;;;;;;;;4916196;29;20091;-67
2022/10/23 14:44:17;;;;;;;2.90;1.70;;;;;;;;;;4917073;29;20036;-66
2022/10/23 14:46:45;;;;;;;4.18;1.67;;;;;;;;;;4915176;29;20050;-66
2022/10/23 14:49:12;;;;;;;3.03;1.80;;;;;;;;;;4912899;29;20115;-66
2022/10/23 14:51:40;;;;;;;3.35;1.60;;;;;;;;;;4917632;29;20040;-67
2022/10/23 14:54:08;;;;;;;2.35;1.40;;;;;;;;;;4915257;29;20130;-67
2022/10/23 14:56:37;;;;;;;3.30;1.63;;;;;;;;;;4911234;29;20509;-67
2022/10/23 14:59:05;;;;;;;3.00;1.88;;;;;;;;;;4915755;29;20039;-67
2022/10/23 15:01:40;;;;;;;2.33;1.70;;;;;;;;;;4914177;29;20388;-68
2022/10/23 15:04:13;;;;;;;2.13;1.67;;;;;;;;;;4915931;29;20040;-67
2022/10/23 15:06:41;;;;;;;2.35;1.65;;;;;;;;;;4916616;29;20036;-67